Fairbury, Illinois
Current Conditions -  °F | °C
As of 8:15 AM on Saturday 20 Dec 2014 (Local Time) from KPNT Reporting Station
Haze Haze  
Wind Chill: -2°   Ceiling: 6500
Heat Index: -2°   Visibility: 4mi
Dew Point: -3°   Wind: 3mph
Humidity: 94%   Direction: 130°SE
Pressure: 30.29"   Gusts: NA
Location:  40.75°N, 88.51°W
Report Text: KPNT 201415Z AUTO 13003KT 4SM BR OVC065 M02/M03 A3029 RMK AO2 T10181026
Loading
Personal Weather Stations






























Interactive Weather Map New forecast layout! Learn more

10-Day Weather Forecast

Advertisements
Track Severe Weather on mobile